Terminal Aerodrome Forecast
Issued by NWS Rapid City, SD

Home | Current Version | Previous Version | Text Only | Print | Product List | Glossary On
Versions: 1 2 3 4 5 6 7 8 9 10 11 12 13 14
517
FTUS43 KUNR 211120
TAFRAP
TAF
KRAP 211120Z 2112/2212 17008KT P6SM FEW150 WS020/19045KT
     FM211500 19011KT P6SM FEW150
     FM211800 35015G25KT P6SM SCT200=

USA.gov is the U.S. government's official web portal to all federal, state and local government web resources and services.